Time;durP1;ratioP1;P1;durP2;ratioP2;P2;SDS_P1;SDS_P2;PMS_P1;PMS_P2;Temp;Humidity;BMP_temperature;BMP_pressure;BME280_temperature;BME280_humidity;BME280_pressure;Samples;Min_cycle;Max_cycle;Signal;HPM_P1;HPM_P2
2021/12/29 00:00:30;;;;;;;;;4.00;3.25;;;;;9.15;86.08;98120.66;5090372;28;9186;-57
2021/12/29 00:02:59;;;;;;;;;3.75;3.75;;;;;9.16;86.65;98129.44;5089868;28;9488;-57
2021/12/29 00:05:27;;;;;;;;;3.25;3.25;;;;;9.18;86.28;98146.88;5091117;28;8866;-57
2021/12/29 00:07:55;;;;;;;;;3.25;2.00;;;;;9.18;86.20;98148.72;5090393;28;8849;-57
2021/12/29 00:10:23;;;;;;;;;4.00;3.50;;;;;9.19;86.17;98142.41;5091007;28;8834;-57
2021/12/29 00:12:53;;;;;;;;;1.50;1.50;;;;;9.19;86.97;98153.03;5090515;28;8850;-57
2021/12/29 00:15:21;;;;;;;;;1.00;0.75;;;;;9.19;86.29;98147.72;5090085;28;8986;-57
2021/12/29 00:17:48;;;;;;;;;3.00;1.00;;;;;9.18;86.43;98144.22;5090942;28;8999;-57
2021/12/29 00:20:16;;;;;;;;;0.75;0.75;;;;;9.19;86.63;98155.69;5091037;28;8842;-57
2021/12/29 00:22:44;;;;;;;;;0.00;0.00;;;;;9.19;86.55;98155.69;5091121;28;8838;-57
2021/12/29 00:25:11;;;;;;;;;1.00;1.00;;;;;9.18;86.54;98154.03;5089553;28;8842;-58
2021/12/29 00:27:39;;;;;;;;;1.00;1.00;;;;;9.18;86.96;98165.47;5092098;28;8849;-57
2021/12/29 00:30:07;;;;;;;;;2.00;1.00;;;;;9.17;86.85;98162.94;5091025;28;8829;-57
2021/12/29 00:32:35;;;;;;;;;3.00;2.00;;;;;9.17;86.84;98162.94;5091531;28;8850;-57
2021/12/29 00:35:02;;;;;;;;;1.00;0.50;;;;;9.17;86.69;98177.06;5091295;28;8919;-57
2021/12/29 00:37:30;;;;;;;;;1.00;0.75;;;;;9.16;86.78;98186.03;5091065;28;8861;-57
2021/12/29 00:39:58;;;;;;;;;4.00;3.00;;;;;9.17;86.59;98186.84;5090523;28;9028;-58
2021/12/29 00:42:26;;;;;;;;;2.00;2.00;;;;;9.16;86.74;98188.69;5091183;28;8869;-57
2021/12/29 00:44:54;;;;;;;;;4.00;4.00;;;;;9.16;86.72;98188.69;5090373;28;8842;-57
2021/12/29 00:47:21;;;;;;;;;3.00;1.00;;;;;9.16;86.76;98195.81;5088559;28;8842;-56
2021/12/29 00:49:49;;;;;;;;;5.50;4.50;;;;;9.15;86.96;98192.34;5089598;28;8871;-56
2021/12/29 00:52:17;;;;;;;;;7.50;6.75;;;;;9.14;87.17;98198.66;5090175;28;8845;-57
2021/12/29 00:54:45;;;;;;;;;4.00;4.00;;;;;9.15;86.85;98207.44;5090893;28;8850;-56
2021/12/29 00:57:13;;;;;;;;;3.75;3.50;;;;;9.14;86.87;98208.41;5089915;28;8871;-57
2021/12/29 00:59:40;;;;;;;;;1.50;1.50;;;;;9.13;86.84;98223.50;5089472;28;8858;-57
2021/12/29 01:02:08;;;;;;;;;6.75;4.00;;;;;9.14;86.68;98221.69;5090335;28;8834;-57
2021/12/29 01:04:36;;;;;;;;;6.50;5.50;;;;;9.13;87.38;98241.28;5090989;28;8988;-57
2021/12/29 01:07:04;;;;;;;;;8.50;6.00;;;;;9.13;87.34;98244.75;5090570;28;8976;-57
2021/12/29 01:09:31;;;;;;;;;4.00;4.00;;;;;9.12;87.18;98256.34;5091111;28;8842;-57
2021/12/29 01:12:00;;;;;;;;;6.50;6.50;;;;;9.13;86.84;98267.81;5090144;28;8868;-56
2021/12/29 01:14:30;;;;;;;;;6.25;6.00;;;;;9.12;87.35;98272.28;5090473;28;8980;-57
2021/12/29 01:16:58;;;;;;;;;7.50;3.25;;;;;9.12;87.22;98282.91;5089997;28;8838;-56
2021/12/29 01:19:25;;;;;;;;;5.50;4.00;;;;;9.11;87.40;98291.88;5090142;28;8849;-57
2021/12/29 01:21:53;;;;;;;;;5.00;5.00;;;;;9.10;86.93;98290.22;5090086;28;8830;-57
2021/12/29 01:24:22;;;;;;;;;7.75;6.50;;;;;9.10;87.58;98298.16;5088879;28;8960;-56
2021/12/29 01:26:49;;;;;;;;;5.50;4.00;;;;;9.11;87.50;98301.66;5090341;28;8846;-57
2021/12/29 01:29:17;;;;;;;;;7.50;6.25;;;;;9.10;87.29;98315.91;5090477;28;8838;-56
2021/12/29 01:31:45;;;;;;;;;5.00;5.00;;;;;9.09;87.24;98316.91;5091433;28;8861;-56
2021/12/29 01:34:13;;;;;;;;;6.75;6.00;;;;;9.08;87.67;98318.75;5090866;28;8872;-56
2021/12/29 01:36:41;;;;;;;;;8.00;8.00;;;;;9.09;87.19;98343.44;5090687;28;8850;-56
2021/12/29 01:39:09;;;;;;;;;6.00;5.50;;;;;9.07;87.17;98333.00;5090486;28;8873;-57
2021/12/29 01:41:36;;;;;;;;;6.00;6.00;;;;;9.08;87.81;98339.97;5090342;28;8870;-57
2021/12/29 01:44:04;;;;;;;;;7.50;7.00;;;;;9.08;87.72;98347.09;5090715;28;8838;-57
2021/12/29 01:46:32;;;;;;;;;3.75;3.00;;;;;9.08;87.51;98355.91;5090197;28;9503;-57
2021/12/29 01:49:00;;;;;;;;;6.25;5.25;;;;;9.08;87.80;98361.22;5089992;28;8866;-56
2021/12/29 01:51:29;;;;;;;;;4.00;3.00;;;;;9.08;87.48;98369.19;5090044;28;8860;-57
2021/12/29 01:54:15;;;;;;;;;3.75;3.75;;;;;9.07;87.57;98380.78;5089506;28;8876;-57
2021/12/29 01:56:43;;;;;;;;;2.00;2.00;;;;;9.07;87.64;98396.72;5089619;28;8845;-56
2021/12/29 01:59:10;;;;;;;;;3.75;2.75;;;;;9.06;87.49;98388.91;5092432;28;8842;-57
2021/12/29 02:01:38;;;;;;;;;6.50;3.50;;;;;9.05;87.81;98396.03;5093602;28;8875;-56
2021/12/29 02:04:06;;;;;;;;;3.75;3.00;;;;;9.05;87.12;98388.06;5093697;28;8846;-56
2021/12/29 02:06:34;;;;;;;;;4.00;3.50;;;;;9.05;88.00;98413.78;5092360;28;8834;-57
2021/12/29 02:09:02;;;;;;;;;3.25;3.25;;;;;9.04;87.90;98410.28;5092191;28;8863;-56
2021/12/29 02:11:30;;;;;;;;;1.50;1.00;;;;;9.03;87.91;98408.63;5093125;28;8862;-56
2021/12/29 02:13:57;;;;;;;;;5.25;5.25;;;;;9.04;87.83;98417.44;5092427;28;8866;-56
2021/12/29 02:16:25;;;;;;;;;3.50;3.50;;;;;9.03;87.65;98423.72;5091468;28;8856;-56
2021/12/29 02:18:53;;;;;;;;;3.75;3.75;;;;;9.03;87.74;98424.53;5093004;28;8984;-56
2021/12/29 02:21:21;;;;;;;;;7.00;6.25;;;;;9.03;87.47;98427.19;5092876;28;9647;-56
2021/12/29 02:24:15;;;;;;;;;7.50;6.50;;;;;9.02;87.78;98430.84;5093794;28;9511;-56
2021/12/29 02:26:42;;;;;;;;;4.50;4.00;;;;;9.03;87.55;98434.34;5092727;28;8826;-56
2021/12/29 02:29:10;;;;;;;;;3.50;3.50;;;;;9.02;87.90;98436.16;5092818;28;8845;-57
2021/12/29 02:31:38;;;;;;;;;5.50;4.00;;;;;9.02;87.69;98435.31;5093042;28;8961;-57
2021/12/29 02:34:07;;;;;;;;;6.00;5.00;;;;;9.01;87.45;98436.28;5092091;28;9831;-56
2021/12/29 02:36:42;;;;;;;;;4.50;4.50;;;;;9.01;87.81;98444.25;5092410;28;8854;-56
2021/12/29 02:39:12;;;;;;;;;4.50;4.50;;;;;9.00;87.76;98431.97;5091407;28;8874;-58
2021/12/29 02:41:43;;;;;;;;;6.25;6.00;;;;;9.00;87.93;98438.13;5092637;28;8943;-56
2021/12/29 02:44:23;;;;;;;;;5.00;5.00;;;;;8.99;87.84;98447.09;5093319;28;8838;-57
2021/12/29 02:46:51;;;;;;;;;5.50;4.25;;;;;8.99;87.87;98455.06;5092339;28;8965;-57
2021/12/29 02:49:18;;;;;;;;;6.00;6.00;;;;;8.99;87.75;98463.00;5090954;28;8864;-57
2021/12/29 02:51:47;;;;;;;;;4.50;4.00;;;;;8.99;87.86;98462.16;5093433;28;8845;-57
2021/12/29 02:54:16;;;;;;;;;6.50;5.00;;;;;8.99;88.33;98472.78;5091944;28;8844;-57
2021/12/29 02:56:44;;;;;;;;;4.50;4.50;;;;;8.99;88.05;98470.97;5092119;28;9553;-57
2021/12/29 02:59:11;;;;;;;;;6.00;6.00;;;;;8.99;88.13;98478.09;5093238;28;8908;-57
2021/12/29 03:01:39;;;;;;;;;3.00;3.00;;;;;9.00;87.88;98482.41;5091663;28;8872;-57
2021/12/29 03:04:07;;;;;;;;;5.50;4.00;;;;;9.00;87.71;98490.38;5091606;28;8953;-57
2021/12/29 03:06:35;;;;;;;;;6.00;3.75;;;;;8.99;87.96;98492.22;5090607;28;8842;-58
2021/12/29 03:09:03;;;;;;;;;6.00;6.00;;;;;9.00;88.49;98501.84;5090167;28;8849;-57
2021/12/29 03:11:31;;;;;;;;;6.00;6.00;;;;;9.01;87.73;98510.63;5091783;28;9032;-57
2021/12/29 03:13:59;;;;;;;;;3.00;1.50;;;;;9.00;88.20;98512.47;5092254;28;8988;-57
2021/12/29 03:16:27;;;;;;;;;5.00;5.00;;;;;9.01;88.11;98519.44;5092057;28;8846;-56
2021/12/29 03:18:55;;;;;;;;;7.00;6.25;;;;;8.99;88.16;98502.84;5091909;28;8856;-57
2021/12/29 03:21:22;;;;;;;;;4.50;4.50;;;;;9.00;87.77;98511.63;5092233;28;8873;-57
2021/12/29 03:23:51;;;;;;;;;7.00;6.75;;;;;9.00;87.96;98522.25;5092471;28;8850;-57
2021/12/29 03:26:18;;;;;;;;;8.00;6.50;;;;;9.00;87.73;98516.94;5091441;28;8956;-57
2021/12/29 03:28:46;;;;;;;;;9.00;6.00;;;;;9.00;88.06;98512.47;5091816;28;8834;-57
2021/12/29 03:31:15;;;;;;;;;9.50;9.00;;;;;9.01;88.06;98514.13;5091561;28;8823;-56
2021/12/29 03:33:44;;;;;;;;;9.50;9.50;;;;;9.02;87.68;98520.25;5090865;28;8921;-57
2021/12/29 03:36:11;;;;;;;;;7.75;7.50;;;;;9.01;88.05;98516.78;5092359;28;8972;-56
2021/12/29 03:38:39;;;;;;;;;9.75;9.50;;;;;9.01;88.33;98521.25;5092097;28;8834;-56
2021/12/29 03:41:07;;;;;;;;;10.50;9.00;;;;;9.02;88.08;98530.88;5090048;28;8856;-56
2021/12/29 03:43:35;;;;;;;;;7.50;7.00;;;;;9.02;88.00;98520.25;5092097;28;8850;-57
2021/12/29 03:46:02;;;;;;;;;9.00;7.50;;;;;9.01;87.84;98522.09;5090771;28;8862;-57
2021/12/29 03:48:30;;;;;;;;;11.00;10.00;;;;;9.01;88.30;98524.75;5091717;28;9542;-56
2021/12/29 03:50:58;;;;;;;;;6.25;6.00;;;;;9.01;88.11;98538.03;5090946;28;8840;-57
2021/12/29 03:53:26;;;;;;;;;8.75;8.00;;;;;9.01;88.06;98540.69;5092531;28;8838;-57
2021/12/29 03:55:53;;;;;;;;;9.00;8.50;;;;;9.01;87.94;98548.66;5091048;28;8868;-57
2021/12/29 03:58:21;;;;;;;;;7.50;7.50;;;;;9.01;88.24;98545.16;5090777;28;8870;-56
2021/12/29 04:00:48;;;;;;;;;9.00;7.50;;;;;9.00;88.28;98549.63;5091589;28;8968;-56
2021/12/29 04:03:16;;;;;;;;;6.75;6.75;;;;;9.01;88.07;98556.63;5090439;28;8858;-57
2021/12/29 04:05:45;;;;;;;;;6.25;6.00;;;;;9.00;88.27;98562.91;5091480;28;9769;-57
2021/12/29 04:08:13;;;;;;;;;5.50;5.50;;;;;9.01;88.13;98577.00;5090508;28;8854;-57
2021/12/29 04:10:41;;;;;;;;;7.00;6.50;;;;;9.01;87.70;98567.22;5090386;28;8848;-57
2021/12/29 04:13:09;;;;;;;;;4.00;3.25;;;;;9.01;88.23;98584.97;5090327;28;8871;-57
2021/12/29 04:15:37;;;;;;;;;6.00;6.00;;;;;8.99;88.34;98577.16;5089665;28;9438;-56
2021/12/29 04:18:14;;;;;;;;;6.75;6.00;;;;;9.00;88.38;98588.59;5090037;28;8852;-57
2021/12/29 04:20:58;;;;;;;;;3.50;3.25;;;;;9.01;88.17;98592.94;5090644;28;8842;-56
2021/12/29 04:23:26;;;;;;;;;6.00;6.00;;;;;9.01;88.21;98598.25;5092446;28;8952;-56
2021/12/29 04:25:54;;;;;;;;;4.25;3.75;;;;;9.02;88.08;98607.88;5090506;28;8852;-56
2021/12/29 04:28:23;;;;;;;;;6.50;6.00;;;;;9.02;88.30;98622.00;5091459;28;8846;-56
2021/12/29 04:30:50;;;;;;;;;5.75;5.00;;;;;9.04;87.84;98627.19;5090385;28;8842;-56
2021/12/29 04:33:19;;;;;;;;;1.00;1.00;;;;;9.06;87.77;98622.56;5089714;28;8915;-57
2021/12/29 04:35:46;;;;;;;;;5.50;5.50;;;;;9.08;88.35;98631.19;5090053;28;8871;-58
2021/12/29 04:38:14;;;;;;;;;3.50;3.00;;;;;9.10;88.24;98632.72;5091741;28;9487;-56
2021/12/29 04:40:42;;;;;;;;;6.00;3.50;;;;;9.10;87.60;98632.72;5090660;28;8869;-57
2021/12/29 04:43:09;;;;;;;;;4.00;4.00;;;;;9.12;88.07;98632.59;5091324;28;8857;-57
2021/12/29 04:45:37;;;;;;;;;3.50;3.50;;;;;9.11;87.55;98637.06;5091274;28;8894;-58
2021/12/29 04:48:11;;;;;;;;;6.00;6.00;;;;;9.10;87.63;98643.34;5090238;28;9460;-57
2021/12/29 04:50:39;;;;;;;;;6.00;6.00;;;;;9.06;87.83;98655.25;5090912;28;8838;-57
2021/12/29 04:53:07;;;;;;;;;7.00;6.50;;;;;9.03;88.07;98650.22;5090782;28;8838;-57
2021/12/29 04:55:36;;;;;;;;;5.00;5.00;;;;;9.03;88.42;98660.03;5091330;28;8838;-58
2021/12/29 04:58:04;;;;;;;;;4.00;4.00;;;;;9.00;87.92;98663.78;5090109;28;9981;-58
2021/12/29 05:00:31;;;;;;;;;2.50;2.50;;;;;9.01;88.21;98664.63;5091442;28;8857;-58
2021/12/29 05:02:59;;;;;;;;;1.00;1.00;;;;;9.00;88.38;98674.41;5090486;28;8997;-58
2021/12/29 05:05:40;;;;;;;;;4.00;3.25;;;;;8.99;88.04;98675.41;5089468;28;8845;-57
2021/12/29 05:08:25;;;;;;;;;3.00;3.00;;;;;8.99;88.44;98679.88;5088700;28;8861;-58
2021/12/29 05:10:53;;;;;;;;;3.50;3.00;;;;;8.97;88.12;98677.34;5090285;28;9686;-58
2021/12/29 05:13:21;;;;;;;;;6.50;5.00;;;;;8.95;88.29;98674.00;5089276;28;8855;-57
2021/12/29 05:15:48;;;;;;;;;3.00;3.00;;;;;8.94;88.21;98666.16;5089256;28;8909;-57
2021/12/29 05:18:16;;;;;;;;;3.50;3.50;;;;;8.93;88.27;98669.81;5089864;28;8864;-57
2021/12/29 05:20:44;;;;;;;;;3.00;3.00;;;;;8.90;88.57;98691.34;5090032;28;8837;-58
2021/12/29 05:23:12;;;;;;;;;2.50;2.00;;;;;8.88;88.14;98706.59;5090010;28;8964;-57
2021/12/29 05:25:40;;;;;;;;;3.25;3.00;;;;;8.87;88.48;98694.25;5090123;28;8914;-57
2021/12/29 05:28:07;;;;;;;;;4.00;4.00;;;;;8.86;88.52;98684.63;5089991;28;8846;-57
2021/12/29 05:30:35;;;;;;;;;3.00;3.00;;;;;8.83;88.15;98688.41;5089902;28;8934;-57
2021/12/29 05:33:03;;;;;;;;;3.00;3.00;;;;;8.82;88.28;98696.53;5092771;28;8854;-57
2021/12/29 05:35:31;;;;;;;;;3.00;3.00;;;;;8.80;88.48;98704.63;5093120;28;8838;-57
2021/12/29 05:37:58;;;;;;;;;1.00;1.00;;;;;8.78;88.90;98719.84;5093249;28;8842;-57
2021/12/29 05:40:27;;;;;;;;;1.00;1.00;;;;;8.77;88.45;98735.91;5093235;28;8858;-57
2021/12/29 05:42:54;;;;;;;;;1.00;1.00;;;;;8.74;88.39;98739.69;5093817;28;8838;-57
2021/12/29 05:45:22;;;;;;;;;3.75;3.00;;;;;8.75;88.63;98741.34;5093249;28;9734;-57
2021/12/29 05:47:50;;;;;;;;;3.00;3.00;;;;;8.72;89.04;98744.28;5093419;28;8842;-57
2021/12/29 05:50:17;;;;;;;;;3.00;2.00;;;;;8.71;88.77;98736.47;5093998;28;8834;-57
2021/12/29 05:52:45;;;;;;;;;3.00;3.00;;;;;8.70;88.75;98745.41;5093575;28;9720;-58
2021/12/29 05:55:13;;;;;;;;;4.00;3.00;;;;;8.69;88.81;98746.38;5092933;28;8866;-57
2021/12/29 05:57:41;;;;;;;;;2.00;1.50;;;;;8.66;88.75;98755.47;5093296;28;8868;-57
2021/12/29 06:00:08;;;;;;;;;6.25;5.50;;;;;8.66;88.89;98767.91;5092501;28;8891;-57
2021/12/29 06:02:36;;;;;;;;;4.50;4.00;;;;;8.66;89.24;98762.59;5092918;28;8842;-57
2021/12/29 06:05:04;;;;;;;;;3.50;3.00;;;;;8.64;88.92;98765.38;5092808;28;8850;-57
2021/12/29 06:07:32;;;;;;;;;3.50;3.50;;;;;8.65;88.71;98769.72;5092521;28;8868;-57
2021/12/29 06:10:00;;;;;;;;;3.00;3.00;;;;;8.65;88.66;98771.53;5091558;28;8849;-57
2021/12/29 06:12:28;;;;;;;;;3.25;3.00;;;;;8.66;88.94;98774.03;5092335;28;8961;-57
2021/12/29 06:14:56;;;;;;;;;5.50;5.50;;;;;8.66;88.53;98775.88;5091513;28;8926;-57
2021/12/29 06:17:23;;;;;;;;;4.50;3.00;;;;;8.67;88.82;98778.38;5092646;28;8878;-57
2021/12/29 06:19:51;;;;;;;;;6.25;6.00;;;;;8.68;88.85;98772.06;5092068;28;8842;-57
2021/12/29 06:22:19;;;;;;;;;4.50;4.00;;;;;8.68;88.99;98773.91;5091718;28;8834;-57
2021/12/29 06:24:51;;;;;;;;;6.50;6.00;;;;;8.67;88.39;98770.41;5091704;28;9506;-57
2021/12/29 06:27:19;;;;;;;;;6.75;6.00;;;;;8.66;88.77;98768.72;5092134;28;8864;-56
2021/12/29 06:29:47;;;;;;;;;11.00;7.00;;;;;8.67;88.73;98765.09;5090837;28;8838;-57
2021/12/29 06:32:15;;;;;;;;;11.50;6.50;;;;;8.66;88.91;98776.69;5090895;28;8846;-57
2021/12/29 06:34:43;;;;;;;;;5.00;4.50;;;;;8.65;88.90;98775.03;5092339;28;8972;-57
2021/12/29 06:37:12;;;;;;;;;11.00;10.00;;;;;8.66;88.72;98789.13;5090654;28;8849;-56
2021/12/29 06:39:39;;;;;;;;;2.25;1.00;;;;;8.66;88.67;98795.25;5090743;28;8846;-57
2021/12/29 06:42:07;;;;;;;;;7.00;7.00;;;;;8.66;88.50;98792.63;5090293;28;8849;-57
2021/12/29 06:44:35;;;;;;;;;6.50;5.50;;;;;8.66;88.71;98794.44;5089151;28;8837;-57
2021/12/29 06:47:03;;;;;;;;;9.25;6.75;;;;;8.66;88.40;98802.41;5089865;28;9003;-57
2021/12/29 06:49:30;;;;;;;;;7.50;7.50;;;;;8.66;88.56;98802.41;5088869;28;8860;-57
2021/12/29 06:51:58;;;;;;;;;3.25;2.00;;;;;8.67;89.01;98810.22;5091613;28;8876;-57
2021/12/29 06:54:26;;;;;;;;;10.00;9.50;;;;;8.67;88.62;98807.56;5090788;28;8846;-57
2021/12/29 06:56:54;;;;;;;;;5.50;3.75;;;;;8.67;88.80;98815.50;5090118;28;8845;-57
2021/12/29 06:59:21;;;;;;;;;8.50;7.50;;;;;8.68;88.09;98824.31;5088031;28;8942;-57
2021/12/29 07:01:50;;;;;;;;;6.00;5.00;;;;;8.69;88.44;98832.16;5089116;28;8857;-56
2021/12/29 07:04:18;;;;;;;;;7.00;6.50;;;;;8.70;88.28;98836.50;5089457;28;8907;-57
2021/12/29 07:06:46;;;;;;;;;8.00;7.50;;;;;8.71;88.18;98835.50;5088893;28;8864;-57
2021/12/29 07:09:13;;;;;;;;;6.25;5.50;;;;;8.72;88.60;98837.19;5089487;28;8846;-57
2021/12/29 07:11:41;;;;;;;;;3.00;1.50;;;;;8.73;88.47;98833.53;5091482;28;8864;-57
2021/12/29 07:14:10;;;;;;;;;5.00;5.00;;;;;8.74;88.73;98845.84;5090557;28;9642;-57
2021/12/29 07:16:37;;;;;;;;;4.75;4.75;;;;;8.76;88.60;98851.03;5088836;28;8850;-57
2021/12/29 07:19:05;;;;;;;;;5.50;5.50;;;;;8.75;88.72;98847.50;5090561;28;9004;-57
2021/12/29 07:21:33;;;;;;;;;6.00;3.00;;;;;8.74;88.42;98847.66;5088424;28;8883;-57
2021/12/29 07:24:01;;;;;;;;;2.50;2.50;;;;;8.75;88.20;98852.81;5088607;28;8858;-57
2021/12/29 07:26:31;;;;;;;;;5.50;5.00;;;;;8.74;88.36;98853.81;5089750;28;8857;-57
2021/12/29 07:28:59;;;;;;;;;6.00;6.00;;;;;8.73;88.59;98854.78;5088346;28;8834;-57
2021/12/29 07:31:27;;;;;;;;;7.50;6.75;;;;;8.71;88.52;98859.38;5089129;28;8968;-57
2021/12/29 07:34:15;;;;;;;;;4.50;4.00;;;;;8.69;88.42;98864.00;5088831;28;8885;-57
2021/12/29 07:36:43;;;;;;;;;5.00;4.50;;;;;8.69;88.29;98857.84;5088327;28;9502;-57
2021/12/29 07:39:11;;;;;;;;;5.00;3.50;;;;;8.69;88.49;98863.16;5089979;28;8842;-57
2021/12/29 07:41:40;;;;;;;;;5.00;5.00;;;;;8.69;88.29;98865.81;5087923;28;8977;-57
2021/12/29 07:44:08;;;;;;;;;3.00;3.00;;;;;8.70;88.63;98875.44;5088805;28;8883;-57
2021/12/29 07:46:36;;;;;;;;;1.50;1.50;;;;;8.70;88.08;98873.66;5089107;28;8866;-57
2021/12/29 07:49:03;;;;;;;;;1.50;1.50;;;;;8.71;88.55;98877.13;5088679;28;8854;-57
2021/12/29 07:51:31;;;;;;;;;2.00;2.00;;;;;8.71;88.26;98875.31;5088930;28;8872;-57
2021/12/29 07:53:59;;;;;;;;;3.50;2.50;;;;;8.73;87.85;98886.63;5088985;28;8854;-58
2021/12/29 07:56:27;;;;;;;;;4.00;4.00;;;;;8.75;88.55;98897.94;5086752;28;8853;-57
2021/12/29 07:58:55;;;;;;;;;3.75;3.25;;;;;8.77;88.12;98903.13;5084984;28;8846;-57
2021/12/29 08:01:22;;;;;;;;;3.00;3.00;;;;;8.78;88.28;98908.28;5088739;28;8842;-57
2021/12/29 08:03:50;;;;;;;;;3.25;1.50;;;;;8.79;87.96;98907.31;5088414;28;8874;-57
2021/12/29 08:06:18;;;;;;;;;1.00;1.00;;;;;8.81;88.05;98901.88;5087125;28;8830;-57
2021/12/29 08:08:46;;;;;;;;;2.50;2.50;;;;;8.83;87.81;98898.09;5086919;28;8850;-57
2021/12/29 08:11:13;;;;;;;;;3.50;3.00;;;;;8.85;87.66;98911.25;5086590;28;8857;-57
2021/12/29 08:13:41;;;;;;;;;4.00;4.00;;;;;8.87;88.41;98909.28;5086796;28;8976;-57
2021/12/29 08:16:09;;;;;;;;;4.00;3.00;;;;;8.88;88.00;98906.50;5083431;28;8869;-57
2021/12/29 08:18:37;;;;;;;;;3.00;2.50;;;;;8.92;88.30;98910.56;5086526;28;8874;-56
2021/12/29 08:21:05;;;;;;;;;2.00;2.00;;;;;8.94;87.92;98908.59;5086369;28;8848;-57
2021/12/29 08:23:32;;;;;;;;;4.75;4.75;;;;;8.96;88.40;98898.69;5087215;28;8980;-57
2021/12/29 08:26:00;;;;;;;;;5.50;4.00;;;;;9.00;87.62;98908.06;5086021;28;8845;-56
2021/12/29 08:28:28;;;;;;;;;5.00;4.00;;;;;9.00;87.97;98904.56;5082735;28;8862;-57
2021/12/29 08:30:56;;;;;;;;;3.75;3.25;;;;;9.02;87.58;98918.53;5084851;28;8860;-57
2021/12/29 08:33:24;;;;;;;;;3.50;3.50;;;;;9.03;87.89;98928.19;5083869;28;8841;-57
2021/12/29 08:35:51;;;;;;;;;1.50;1.50;;;;;9.04;88.22;98922.72;5082826;28;8846;-57
2021/12/29 08:38:19;;;;;;;;;5.75;5.00;;;;;9.05;87.87;98940.34;5083895;28;8980;-57
2021/12/29 08:40:47;;;;;;;;;4.50;4.00;;;;;9.07;88.00;98943.72;5077478;28;8880;-57
2021/12/29 08:43:16;;;;;;;;;5.50;5.50;;;;;9.08;87.09;98936.56;5084257;28;8842;-56
2021/12/29 08:45:44;;;;;;;;;6.50;5.00;;;;;9.09;87.55;98936.44;5084029;28;8954;-56
2021/12/29 08:48:11;;;;;;;;;6.00;5.50;;;;;9.11;88.06;98936.31;5083318;28;8842;-57
2021/12/29 08:50:39;;;;;;;;;6.00;6.00;;;;;9.11;88.10;98923.84;5084010;28;8934;-56
2021/12/29 08:53:08;;;;;;;;;10.50;9.50;;;;;9.10;87.71;98935.47;5084990;28;8878;-57
2021/12/29 08:55:35;;;;;;;;;8.00;7.00;;;;;9.08;87.90;98934.78;5083125;28;8850;-57
2021/12/29 08:58:06;;;;;;;;;6.50;4.50;;;;;9.07;88.01;98949.03;5082630;28;8865;-57
2021/12/29 09:00:33;;;;;;;;;5.50;5.50;;;;;9.06;88.29;98942.03;5082787;28;8857;-57
2021/12/29 09:03:01;;;;;;;;;5.00;5.00;;;;;9.05;87.83;98939.50;5082489;28;8881;-57
2021/12/29 09:05:29;;;;;;;;;9.00;8.50;;;;;9.03;87.74;98939.63;5083418;28;8893;-57
2021/12/29 09:07:57;;;;;;;;;12.75;10.75;;;;;9.01;87.71;98941.59;5081539;28;8884;-57
2021/12/29 09:10:25;;;;;;;;;4.00;3.00;;;;;8.99;88.49;98940.91;5087421;28;8834;-57
2021/12/29 09:12:55;;;;;;;;;8.50;7.00;;;;;8.96;88.19;98941.16;5086678;28;8842;-57
2021/12/29 09:15:22;;;;;;;;;9.50;8.25;;;;;8.95;88.51;98942.13;5086243;28;9000;-57
2021/12/29 09:17:50;;;;;;;;;7.50;6.25;;;;;8.95;88.39;98955.41;5084191;28;8872;-57
2021/12/29 09:20:27;;;;;;;;;11.25;7.25;;;;;8.94;88.45;98956.41;5086253;28;8991;-57
2021/12/29 09:22:55;;;;;;;;;6.75;6.75;;;;;8.94;88.45;98951.09;5086053;28;9104;-56
2021/12/29 09:25:23;;;;;;;;;8.50;8.50;;;;;8.95;88.38;98952.75;5085601;28;8865;-56
2021/12/29 09:27:53;;;;;;;;;9.50;7.75;;;;;8.95;88.52;98958.06;5084166;28;8845;-57
2021/12/29 09:30:20;;;;;;;;;7.00;7.00;;;;;8.97;88.65;98969.38;5087280;28;8842;-57
2021/12/29 09:32:48;;;;;;;;;11.00;9.50;;;;;8.98;88.31;98965.75;5086698;28;8850;-57
2021/12/29 09:35:18;;;;;;;;;12.50;9.75;;;;;8.99;88.15;98970.13;5086671;28;9705;-56
2021/12/29 09:37:45;;;;;;;;;9.25;9.00;;;;;8.99;88.40;98971.91;5087752;28;8879;-57
2021/12/29 09:40:13;;;;;;;;;15.25;12.75;;;;;8.98;88.43;98973.72;5085964;28;8894;-57
2021/12/29 09:42:41;;;;;;;;;13.00;13.00;;;;;8.99;88.68;98977.22;5087079;28;8838;-57
2021/12/29 09:45:09;;;;;;;;;9.50;9.25;;;;;8.98;88.79;98976.38;5086439;28;8927;-57
2021/12/29 09:47:37;;;;;;;;;14.50;13.00;;;;;9.01;88.23;98993.84;5083105;28;9679;-57
2021/12/29 09:50:04;;;;;;;;;10.50;8.50;;;;;9.00;88.74;98994.84;5084130;28;9575;-58
2021/12/29 09:52:33;;;;;;;;;18.00;12.75;;;;;9.00;88.90;98994.84;5082661;28;8850;-57
2021/12/29 09:55:04;;;;;;;;;13.00;12.25;;;;;9.01;88.47;98997.34;5082100;28;8880;-57
2021/12/29 09:57:32;;;;;;;;;10.00;9.25;;;;;9.04;88.47;99005.03;5083522;28;8850;-57
2021/12/29 10:00:00;;;;;;;;;10.00;9.00;;;;;9.09;88.41;99000.19;5084047;28;8856;-57
2021/12/29 10:02:27;;;;;;;;;13.50;12.75;;;;;9.13;88.40;98990.94;5085999;28;9975;-57
2021/12/29 10:04:58;;;;;;;;;8.75;8.00;;;;;9.17;87.75;98987.06;5084995;28;8830;-57
2021/12/29 10:07:26;;;;;;;;;13.00;12.00;;;;;9.22;87.91;98986.63;5084242;28;8842;-57
2021/12/29 10:09:55;;;;;;;;;12.75;10.50;;;;;9.25;87.88;98976.59;5083808;28;8854;-58
2021/12/29 10:12:23;;;;;;;;;14.25;13.25;;;;;9.29;88.01;98980.66;5086292;28;8888;-57
2021/12/29 10:14:51;;;;;;;;;13.50;12.75;;;;;9.31;87.62;98983.16;5087583;28;8838;-58
2021/12/29 10:17:18;;;;;;;;;16.50;15.00;;;;;9.33;88.00;98975.91;5083514;28;8870;-57
2021/12/29 10:19:46;;;;;;;;;15.25;12.75;;;;;9.34;87.79;98973.09;5085291;28;8854;-57
2021/12/29 10:22:14;;;;;;;;;24.75;17.50;;;;;9.36;87.59;98971.16;5086435;28;8854;-57
2021/12/29 10:24:42;;;;;;;;;11.25;10.75;;;;;9.39;86.99;98972.69;5084954;28;8903;-57
2021/12/29 10:27:09;;;;;;;;;17.00;13.00;;;;;9.42;87.27;98970.59;5084745;28;8849;-57
2021/12/29 10:29:38;;;;;;;;;13.00;11.00;;;;;9.45;87.61;98970.31;5088346;28;8842;-57
2021/12/29 10:32:06;;;;;;;;;16.00;13.50;;;;;9.48;87.43;98966.56;5084415;28;8926;-57
2021/12/29 10:34:34;;;;;;;;;16.25;12.00;;;;;9.56;87.28;98966.69;5084080;28;9195;-57
2021/12/29 10:37:02;;;;;;;;;10.50;9.25;;;;;9.65;87.03;98957.88;5083106;28;8864;-58
2021/12/29 10:39:29;;;;;;;;;13.50;12.00;;;;;9.71;86.79;98960.81;5083082;28;8877;-58
2021/12/29 10:41:58;;;;;;;;;18.75;18.25;;;;;9.77;86.77;98962.91;5084534;28;8838;-57
2021/12/29 10:44:26;;;;;;;;;12.25;11.50;;;;;9.82;87.22;98960.66;5085061;28;8825;-57
2021/12/29 10:46:56;;;;;;;;;12.25;12.25;;;;;9.86;86.26;98967.38;5082272;28;8854;-57
2021/12/29 10:49:24;;;;;;;;;13.50;12.50;;;;;9.89;86.42;98969.75;5082920;28;8865;-57
2021/12/29 10:51:52;;;;;;;;;12.00;10.50;;;;;9.91;86.66;98966.94;5082878;28;8846;-57
2021/12/29 10:54:20;;;;;;;;;13.67;12.33;;;;;9.96;86.77;98960.22;5081556;28;8934;-57
2021/12/29 10:56:49;;;;;;;;;10.50;9.50;;;;;10.05;86.19;98954.09;5081036;28;9895;-57
2021/12/29 10:59:18;;;;;;;;;18.00;10.75;;;;;10.23;86.46;98955.00;5075025;28;8845;-57
2021/12/29 11:01:46;;;;;;;;;10.00;9.75;;;;;10.39;85.81;98957.09;5080205;28;8857;-57
2021/12/29 11:04:14;;;;;;;;;13.50;12.00;;;;;10.46;84.90;98955.53;5080246;28;8826;-57
2021/12/29 11:06:43;;;;;;;;;11.50;9.00;;;;;10.45;85.54;98957.34;5081865;28;8854;-57
2021/12/29 11:09:11;;;;;;;;;10.00;9.25;;;;;10.41;85.82;98960.44;5079947;28;8858;-57
2021/12/29 11:11:38;;;;;;;;;12.75;12.50;;;;;10.38;85.68;98964.22;5081468;28;8996;-57
2021/12/29 11:14:07;;;;;;;;;12.00;12.00;;;;;10.34;85.74;98967.31;5082573;28;8849;-56
2021/12/29 11:16:34;;;;;;;;;16.00;13.50;;;;;10.31;85.74;98970.28;5081415;28;8873;-56
2021/12/29 11:19:02;;;;;;;;;11.00;9.75;;;;;10.28;85.48;98965.22;5083470;28;8995;-56
2021/12/29 11:21:30;;;;;;;;;13.50;12.25;;;;;10.28;85.82;98960.75;5080942;28;8887;-56
2021/12/29 11:23:58;;;;;;;;;12.00;12.00;;;;;10.35;85.67;98951.22;5083330;28;9730;-56
2021/12/29 11:26:25;;;;;;;;;15.50;14.00;;;;;10.47;85.68;98952.69;5081791;28;8864;-56
2021/12/29 11:28:53;;;;;;;;;10.50;9.50;;;;;10.59;85.62;98954.19;5081111;28;8868;-57
2021/12/29 11:31:21;;;;;;;;;17.00;14.50;;;;;10.65;85.06;98944.78;5084451;28;8842;-57
2021/12/29 11:33:49;;;;;;;;;13.00;12.00;;;;;10.64;84.94;98951.09;5080260;28;8915;-56
2021/12/29 11:36:17;;;;;;;;;14.00;11.50;;;;;10.62;85.39;98956.56;5082142;28;8980;-56
2021/12/29 11:38:44;;;;;;;;;10.50;9.25;;;;;10.63;84.95;98949.44;5083215;28;8881;-56
2021/12/29 11:41:15;;;;;;;;;13.00;12.00;;;;;10.64;85.22;98951.09;5084274;28;8870;-56
2021/12/29 11:43:45;;;;;;;;;8.50;8.00;;;;;10.64;85.44;98962.59;5083482;28;9559;-57
2021/12/29 11:46:13;;;;;;;;;10.00;9.50;;;;;10.65;84.88;98974.06;5082162;28;8857;-57
2021/12/29 11:48:40;;;;;;;;;12.25;11.50;;;;;10.62;85.23;98972.53;5083991;28;8853;-56
2021/12/29 11:51:08;;;;;;;;;11.00;10.50;;;;;10.67;85.47;98972.09;5083616;28;8845;-57